Terminal Aerodrome Forecast
Issued by NWS

Home | Current Version | Previous Version | Text Only | Print | Product List | Glossary On
Versions: 1 2 3 4 5 6 7 8 9 10 11 12 13 14 15 16 17 18 19 20 21 22 23 24 25 26 27 28 29 30 31 32 33 34 35 36
000
FTUS45 KGJT 240535
TAFEGE
TAF
KEGE 240535Z 2406/2506 08005KT P6SM BKN120
     FM241300 VRB03KT P6SM VCSH SCT050 BKN090
     FM241800 25012KT P6SM VCSH SCT050 BKN090
     FM242100 26010G18KT P6SM VCTS SCT030CB BKN080
     FM250100 06006KT P6SM BKN100
      AMD LTD TO CLD VIS AND WIND TIL 241300=

USA.gov is the U.S. government's official web portal to all federal, state and local government web resources and services.